Time;durP1;ratioP1;P1;durP2;ratioP2;P2;SDS_P1;SDS_P2;PMS_P1;PMS_P2;Temp;Humidity;BMP_temperature;BMP_pressure;BME280_temperature;BME280_humidity;BME280_pressure;Samples;Min_cycle;Max_cycle;Signal;HPM_P1;HPM_P2
2022/11/22 00:00:07;;;;;;;8.18;1.88;;;8.20;99.90;;;;;;4978634;28;20217;-90
2022/11/22 00:02:34;;;;;;;14.10;2.85;;;8.10;99.90;;;;;;4978406;28;20170;-90
2022/11/22 00:04:59;;;;;;;7.13;2.38;;;8.10;99.90;;;;;;4978353;28;20205;-90
2022/11/22 00:07:25;;;;;;;10.45;2.80;;;8.00;99.90;;;;;;4978119;28;20170;-84
2022/11/22 00:09:51;;;;;;;22.90;3.35;;;7.90;99.90;;;;;;4978057;28;20182;-89
2022/11/22 00:12:16;;;;;;;21.27;2.83;;;7.90;99.90;;;;;;4978050;28;20305;-90
2022/11/22 00:14:42;;;;;;;12.70;3.38;;;8.00;99.90;;;;;;4978638;28;20246;-90
2022/11/22 00:17:07;;;;;;;16.83;4.10;;;8.00;99.90;;;;;;4978428;28;20178;-90
2022/11/22 00:19:34;;;;;;;15.07;2.65;;;7.90;99.90;;;;;;4978263;28;20647;-88
2022/11/22 00:22:00;;;;;;;22.40;2.78;;;7.80;99.90;;;;;;4978164;28;20209;-90
2022/11/22 00:24:26;;;;;;;16.45;2.92;;;7.70;99.90;;;;;;4978003;28;20213;-90
2022/11/22 00:26:51;;;;;;;19.98;3.08;;;7.80;99.90;;;;;;4977873;28;20170;-89
2022/11/22 00:29:17;;;;;;;17.00;2.65;;;7.70;99.90;;;;;;4977713;28;20319;-90
2022/11/22 00:31:42;;;;;;;23.88;3.30;;;7.70;99.90;;;;;;4977642;28;20206;-86
2022/11/22 00:34:08;;;;;;;15.07;2.72;;;7.70;99.90;;;;;;4979996;28;20228;-90
2022/11/22 00:36:34;;;;;;;21.13;3.03;;;7.70;99.90;;;;;;4978131;28;20178;-90
2022/11/22 00:38:59;;;;;;;10.32;1.95;;;7.80;99.90;;;;;;4977781;28;20209;-91
2022/11/22 00:41:25;;;;;;;16.13;3.22;;;7.70;99.90;;;;;;4977621;28;20517;-90
2022/11/22 00:43:50;;;;;;;13.65;2.65;;;7.70;99.90;;;;;;4976640;28;20221;-90
2022/11/22 00:46:16;;;;;;;10.82;1.92;;;7.70;99.90;;;;;;4982807;28;20173;-87
2022/11/22 00:48:41;;;;;;;14.40;2.42;;;7.70;99.90;;;;;;4983616;28;20220;-88
2022/11/22 00:51:07;;;;;;;22.33;3.38;;;7.60;99.90;;;;;;4981139;28;20213;-88
2022/11/22 00:53:32;;;;;;;11.35;2.35;;;7.60;99.90;;;;;;4982868;28;20170;-90
2022/11/22 00:55:58;;;;;;;18.08;2.88;;;7.70;99.90;;;;;;4978783;28;20178;-90
2022/11/22 00:58:23;;;;;;;19.15;2.70;;;7.60;99.90;;;;;;4977658;28;20166;-82
2022/11/22 01:00:49;;;;;;;17.33;2.42;;;7.60;99.90;;;;;;4977243;28;20578;-85
2022/11/22 01:03:15;;;;;;;19.90;2.55;;;7.60;99.90;;;;;;4977158;28;20176;-84
2022/11/22 01:05:40;;;;;;;15.45;2.95;;;7.50;99.90;;;;;;4977017;28;20174;-90
2022/11/22 01:08:06;;;;;;;9.40;2.47;;;7.50;99.90;;;;;;4977713;28;20174;-86
2022/11/22 01:10:35;;;;;;;9.75;2.22;;;7.50;99.90;;;;;;4977225;28;20703;-90
2022/11/22 01:13:00;;;;;;;14.05;1.63;;;7.40;99.90;;;;;;4977322;28;20278;-90
2022/11/22 01:15:26;;;;;;;19.30;2.47;;;7.30;99.90;;;;;;4977207;28;20746;-90
2022/11/22 01:17:51;;;;;;;13.90;2.55;;;7.30;99.90;;;;;;4976942;28;20162;-89
2022/11/22 01:20:17;;;;;;;8.88;2.03;;;7.30;99.90;;;;;;4976935;28;20201;-89
2022/11/22 01:22:43;;;;;;;8.57;1.88;;;7.30;99.90;;;;;;4976926;28;20248;-90
2022/11/22 01:25:08;;;;;;;14.13;2.22;;;7.30;99.90;;;;;;4975475;28;20177;-89
2022/11/22 01:27:34;;;;;;;10.35;1.98;;;7.30;99.90;;;;;;4976905;28;20648;-86
2022/11/22 01:30:00;;;;;;;13.40;2.08;;;7.40;99.90;;;;;;4977038;28;20193;-90
2022/11/22 01:32:25;;;;;;;19.55;2.05;;;7.30;99.90;;;;;;4976758;28;20201;-88
2022/11/22 01:34:51;;;;;;;7.82;1.92;;;7.30;99.90;;;;;;4977382;28;20253;-89
2022/11/22 01:37:16;;;;;;;9.30;2.25;;;7.30;99.90;;;;;;4981251;28;20177;-90
2022/11/22 01:39:42;;;;;;;11.85;2.15;;;7.40;99.90;;;;;;4977474;28;20269;-90
2022/11/22 01:42:10;;;;;;;15.13;2.50;;;7.40;99.90;;;;;;4975910;28;20505;-88
2022/11/22 01:44:38;;;;;;;12.38;1.98;;;7.40;99.90;;;;;;4976667;28;20854;-90
2022/11/22 01:47:08;;;;;;;16.38;2.72;;;7.40;99.90;;;;;;4975401;28;20193;-89
2022/11/22 01:49:45;;;;;;;7.72;1.73;;;7.30;99.90;;;;;;4974860;28;20197;-91
2022/11/22 01:52:22;;;;;;;8.88;2.63;;;7.30;99.90;;;;;;4976424;28;20185;-91
2022/11/22 01:54:53;;;;;;;10.65;2.45;;;7.20;99.90;;;;;;4976684;28;20876;-90
2022/11/22 01:57:24;;;;;;;9.52;1.70;;;7.20;99.90;;;;;;4976296;28;20283;-90
2022/11/22 01:59:55;;;;;;;17.30;2.33;;;7.10;99.90;;;;;;4976124;28;20746;-86
2022/11/22 02:02:21;;;;;;;12.45;1.55;;;7.00;99.90;;;;;;4976733;28;20260;-89
2022/11/22 02:04:49;;;;;;;13.05;2.03;;;7.00;99.90;;;;;;4976143;28;20679;-86
2022/11/22 02:07:26;;;;;;;8.45;1.40;;;7.00;99.90;;;;;;4976187;28;20173;-88
2022/11/22 02:09:52;;;;;;;22.75;2.40;;;7.00;99.90;;;;;;4975970;28;20194;-90
2022/11/22 02:12:22;;;;;;;4.07;1.75;;;7.00;99.90;;;;;;4975722;28;20206;-89
2022/11/22 02:14:48;;;;;;;17.38;2.17;;;7.10;99.90;;;;;;4975881;28;20225;-89
2022/11/22 02:17:14;;;;;;;9.18;2.03;;;7.00;99.90;;;;;;4976090;28;20162;-90
2022/11/22 02:19:44;;;;;;;15.20;2.40;;;7.00;99.90;;;;;;4975844;28;20253;-87
2022/11/22 02:22:43;;;;;;;13.82;1.73;;;7.10;99.90;;;;;;4976245;28;20193;-87
2022/11/22 02:25:21;;;;;;;12.55;1.83;;;7.10;99.90;;;;;;4974719;28;20197;-89
2022/11/22 02:27:48;;;;;;;17.20;1.80;;;7.10;99.90;;;;;;4975907;28;20232;-88
2022/11/22 02:30:14;;;;;;;13.40;1.80;;;7.10;99.90;;;;;;4975658;28;20760;-90
2022/11/22 02:32:40;;;;;;;10.13;1.92;;;7.00;99.90;;;;;;4975793;28;20170;-89
2022/11/22 02:35:26;;;;;;;7.10;1.60;;;6.90;99.90;;;;;;4975757;28;20209;-89
2022/11/22 02:38:31;;;;;;;7.68;1.52;;;7.00;99.90;;;;;;4975901;28;20173;-88
2022/11/22 02:41:05;;;;;;;10.32;1.60;;;6.90;99.90;;;;;;4955105;29;20229;-87
2022/11/22 02:43:38;;;;;;;8.45;1.20;;;6.90;99.90;;;;;;4972940;28;20245;-89
2022/11/22 02:46:10;;;;;;;11.27;1.75;;;6.90;99.90;;;;;;4975909;28;20162;-87
2022/11/22 02:48:43;;;;;;;8.93;1.45;;;6.90;99.90;;;;;;4975176;28;20173;-90
2022/11/22 02:51:10;;;;;;;15.15;1.75;;;7.00;99.90;;;;;;4975172;28;20216;-88
2022/11/22 02:53:35;;;;;;;15.82;1.92;;;7.00;99.90;;;;;;4975332;28;20170;-85
2022/11/22 02:56:01;;;;;;;11.07;1.67;;;6.90;99.90;;;;;;4975210;28;20659;-89
2022/11/22 02:58:27;;;;;;;4.43;1.10;;;6.80;99.90;;;;;;4974568;28;20170;-90
2022/11/22 03:00:52;;;;;;;8.68;1.13;;;7.00;99.90;;;;;;4975258;28;20196;-82
2022/11/22 03:03:18;;;;;;;9.95;2.28;;;7.00;99.90;;;;;;4975125;28;20198;-89
2022/11/22 03:05:43;;;;;;;11.25;1.52;;;6.90;99.90;;;;;;4974204;28;20228;-82
2022/11/22 03:08:09;;;;;;;8.75;1.90;;;6.90;99.90;;;;;;4974067;28;20170;-87
2022/11/22 03:10:34;;;;;;;12.57;1.55;;;6.80;99.90;;;;;;4974899;28;20642;-90
2022/11/22 03:13:00;;;;;;;15.02;1.85;;;6.70;99.90;;;;;;4975567;28;20228;-90
2022/11/22 03:15:25;;;;;;;16.83;1.85;;;6.90;99.90;;;;;;4975438;28;20174;-88
2022/11/22 03:18:02;;;;;;;8.73;2.13;;;6.90;99.90;;;;;;4975245;28;20201;-88
2022/11/22 03:20:28;;;;;;;14.13;1.80;;;6.80;99.90;;;;;;4974971;28;20189;-88
2022/11/22 03:22:54;;;;;;;6.60;1.85;;;6.80;99.90;;;;;;4974888;28;20174;-87
2022/11/22 03:25:20;;;;;;;16.27;1.67;;;6.70;99.90;;;;;;4974827;28;20174;-90
2022/11/22 03:27:45;;;;;;;4.50;1.42;;;6.80;99.90;;;;;;4974913;28;20178;-90
2022/11/22 03:30:11;;;;;;;4.13;1.15;;;6.80;99.90;;;;;;4974692;28;20204;-90
2022/11/22 03:32:37;;;;;;;13.57;1.55;;;6.60;99.90;;;;;;4974573;28;20178;-87
2022/11/22 03:35:03;;;;;;;5.30;1.65;;;6.70;99.90;;;;;;4984692;28;20173;-89
2022/11/22 03:37:29;;;;;;;18.33;1.75;;;6.70;99.90;;;;;;4994141;28;20220;-89
2022/11/22 03:39:54;;;;;;;13.10;1.73;;;6.80;99.90;;;;;;4993557;28;20185;-89
2022/11/22 03:42:20;;;;;;;7.97;1.85;;;6.80;99.90;;;;;;4993714;28;20181;-83
2022/11/22 03:44:45;;;;;;;11.80;1.55;;;6.70;99.90;;;;;;4993674;28;20171;-89
2022/11/22 03:47:11;;;;;;;15.57;1.63;;;6.70;99.90;;;;;;4993433;28;20185;-88
2022/11/22 03:49:37;;;;;;;11.50;1.80;;;6.60;99.90;;;;;;4993752;28;20232;-87
2022/11/22 03:52:03;;;;;;;7.75;1.52;;;6.70;99.90;;;;;;4994798;28;20229;-86
2022/11/22 03:54:28;;;;;;;6.50;1.50;;;6.60;99.90;;;;;;4994433;28;20200;-90
2022/11/22 03:56:54;;;;;;;8.80;1.55;;;6.60;99.90;;;;;;4994103;28;20248;-89
2022/11/22 03:59:20;;;;;;;10.70;1.35;;;6.60;99.90;;;;;;4994453;28;20196;-88
2022/11/22 04:01:45;;;;;;;9.52;1.73;;;6.40;99.90;;;;;;4994212;28;20626;-90
2022/11/22 04:04:11;;;;;;;5.25;1.98;;;6.30;99.90;;;;;;4994149;28;20169;-90
2022/11/22 04:06:37;;;;;;;8.55;1.27;;;6.50;99.90;;;;;;4994116;28;20166;-90
2022/11/22 04:09:03;;;;;;;6.32;1.23;;;6.50;99.90;;;;;;4995501;28;20195;-89
2022/11/22 04:11:29;;;;;;;6.15;1.60;;;6.50;99.90;;;;;;4997936;28;20280;-90
2022/11/22 04:16:39;;;;;;;12.30;3.10;;;6.50;99.90;;;;;;4998238;28;20180;-90
2022/11/22 04:19:05;;;;;;;21.05;1.88;;;6.40;99.90;;;;;;4997946;28;20206;-89
2022/11/22 04:21:33;;;;;;;7.90;1.88;;;6.50;99.90;;;;;;4997982;28;20158;-90
2022/11/22 04:26:54;;;;;;;8.00;1.48;;;6.50;99.90;;;;;;4997702;28;20164;-89
2022/11/22 04:29:21;;;;;;;12.00;1.48;;;6.50;99.90;;;;;;4997494;28;20658;-90
2022/11/22 04:34:32;;;;;;;20.17;2.08;;;6.50;99.90;;;;;;4997273;28;20304;-87
2022/11/22 04:37:02;;;;;;;5.80;1.70;;;6.50;99.90;;;;;;5006796;28;20177;-87
2022/11/22 04:39:28;;;;;;;6.82;1.38;;;6.50;99.90;;;;;;5005048;28;20244;-91
2022/11/22 04:44:39;;;;;;;4.45;1.27;;;6.70;99.90;;;;;;5003313;28;20223;-90
2022/11/22 04:47:06;;;;;;;11.90;1.23;;;6.90;99.90;;;;;;5003993;28;20180;-90
2022/11/22 04:49:31;;;;;;;10.18;1.27;;;6.90;99.90;;;;;;5003581;28;20193;-90
2022/11/22 04:54:41;;;;;;;8.38;1.30;;;7.10;99.90;;;;;;5002961;28;20280;-89
2022/11/22 04:57:07;;;;;;;16.80;1.60;;;6.90;99.90;;;;;;5002359;28;20172;-84
2022/11/22 04:59:33;;;;;;;8.20;2.08;;;6.90;99.90;;;;;;5001455;28;20205;-89
2022/11/22 05:01:58;;;;;;;20.30;2.47;;;7.00;99.90;;;;;;5001175;28;20618;-87
2022/11/22 05:04:24;;;;;;;6.07;1.40;;;7.00;99.90;;;;;;5004834;28;20224;-89
2022/11/22 05:06:50;;;;;;;10.93;1.77;;;6.80;99.90;;;;;;5001261;28;20637;-85
2022/11/22 05:09:16;;;;;;;14.77;2.20;;;6.80;99.90;;;;;;4999828;28;20220;-90
2022/11/22 05:11:42;;;;;;;8.07;1.95;;;6.70;99.90;;;;;;5000901;28;20205;-83
2022/11/22 05:14:09;;;;;;;6.85;2.00;;;6.50;99.90;;;;;;5002929;28;20181;-89
2022/11/22 05:16:34;;;;;;;6.95;1.90;;;6.60;99.90;;;;;;5001959;28;20177;-90
2022/11/22 05:19:00;;;;;;;8.63;2.33;;;6.70;99.90;;;;;;5001140;28;20188;-88
2022/11/22 05:21:27;;;;;;;10.20;2.13;;;6.60;99.90;;;;;;5000735;28;20177;-87
2022/11/22 05:23:55;;;;;;;3.75;1.83;;;6.70;99.90;;;;;;5000950;28;20181;-85
2022/11/22 05:26:28;;;;;;;13.98;4.05;;;6.60;99.90;;;;;;4986730;28;20154;-90
2022/11/22 05:28:54;;;;;;;9.20;1.85;;;6.60;99.90;;;;;;5002115;28;20212;-90
2022/11/22 05:31:23;;;;;;;14.05;2.15;;;6.60;99.90;;;;;;4999743;28;20201;-90
2022/11/22 05:33:51;;;;;;;8.60;1.52;;;6.70;99.90;;;;;;4998566;28;20169;-91
2022/11/22 05:36:17;;;;;;;10.32;1.92;;;6.80;99.90;;;;;;4997611;28;20205;-90
2022/11/22 05:38:43;;;;;;;9.23;1.90;;;6.80;99.90;;;;;;4998495;28;20166;-90
2022/11/22 05:41:10;;;;;;;7.80;2.00;;;6.80;99.90;;;;;;4997727;28;20535;-87
2022/11/22 05:43:37;;;;;;;5.80;2.05;;;7.00;99.90;;;;;;4998247;28;20192;-89
2022/11/22 05:46:14;;;;;;;13.07;2.20;;;7.20;99.90;;;;;;4998419;28;20165;-87
2022/11/22 05:48:42;;;;;;;8.43;1.88;;;7.40;99.90;;;;;;5004155;28;20188;-90
2022/11/22 05:51:13;;;;;;;11.70;1.80;;;7.20;99.90;;;;;;4998299;28;20196;-90
2022/11/22 05:53:40;;;;;;;3.80;1.80;;;7.10;99.90;;;;;;4997401;28;20189;-87
2022/11/22 05:56:21;;;;;;;14.88;2.65;;;7.20;99.90;;;;;;4997674;28;20161;-85
2022/11/22 05:58:47;;;;;;;4.95;1.65;;;7.10;99.90;;;;;;4996436;28;20272;-90
2022/11/22 06:01:15;;;;;;;3.03;1.63;;;7.10;99.90;;;;;;4997683;28;20611;-89
2022/11/22 06:03:41;;;;;;;4.20;1.48;;;7.10;99.90;;;;;;4997881;28;20169;-89
2022/11/22 06:06:07;;;;;;;8.73;2.38;;;7.00;99.90;;;;;;4997712;28;20244;-90
2022/11/22 06:08:36;;;;;;;9.38;1.92;;;7.20;99.90;;;;;;4996864;28;20264;-90
2022/11/22 06:11:07;;;;;;;13.75;1.90;;;7.20;99.90;;;;;;4997045;28;20259;-87
2022/11/22 06:13:38;;;;;;;12.07;2.45;;;7.30;99.90;;;;;;4999496;28;20216;-80
2022/11/22 06:16:05;;;;;;;13.77;1.95;;;7.30;99.90;;;;;;5011319;28;20177;-78
2022/11/22 06:18:32;;;;;;;14.73;2.40;;;7.30;99.90;;;;;;5004253;28;20165;-88
2022/11/22 06:21:02;;;;;;;9.38;2.00;;;7.30;99.90;;;;;;4996194;28;20180;-88
2022/11/22 06:23:29;;;;;;;14.00;2.47;;;7.10;99.90;;;;;;4995740;28;20236;-85
2022/11/22 06:26:07;;;;;;;8.95;1.67;;;7.10;99.90;;;;;;4995571;28;20208;-90
2022/11/22 06:28:34;;;;;;;4.50;1.67;;;7.10;99.90;;;;;;4994792;28;20264;-84
2022/11/22 06:31:22;;;;;;;8.48;1.83;;;7.20;99.90;;;;;;4995142;28;20227;-87
2022/11/22 06:33:48;;;;;;;6.72;1.60;;;7.20;99.90;;;;;;4995060;28;20215;-83
2022/11/22 06:36:22;;;;;;;7.53;1.90;;;7.10;99.90;;;;;;4996721;28;20574;-89
2022/11/22 06:38:48;;;;;;;4.18;1.58;;;7.10;99.90;;;;;;4994956;28;20185;-90
2022/11/22 06:41:17;;;;;;;10.02;2.33;;;7.10;99.90;;;;;;4995248;28;20268;-91
2022/11/22 06:43:45;;;;;;;3.83;1.50;;;7.20;99.90;;;;;;4995221;28;20168;-90
2022/11/22 06:46:11;;;;;;;6.10;1.60;;;7.30;99.90;;;;;;4995235;28;20161;-90
2022/11/22 06:48:37;;;;;;;6.88;2.03;;;7.30;99.90;;;;;;4994929;28;20247;-84
2022/11/22 06:51:06;;;;;;;10.98;2.13;;;7.30;99.90;;;;;;4994464;28;20209;-85
2022/11/22 06:53:34;;;;;;;9.15;1.95;;;7.30;99.90;;;;;;4994448;28;20165;-89
2022/11/22 06:56:05;;;;;;;10.52;2.05;;;7.30;99.90;;;;;;4994567;28;20175;-89
2022/11/22 06:58:32;;;;;;;7.03;2.13;;;7.50;99.90;;;;;;4993856;28;20165;-84
2022/11/22 07:01:06;;;;;;;11.68;2.30;;;7.60;99.90;;;;;;4994245;28;20174;-90
2022/11/22 07:03:39;;;;;;;5.55;1.83;;;7.50;99.90;;;;;;4994158;28;20188;-90
2022/11/22 07:06:08;;;;;;;4.85;1.88;;;7.40;99.90;;;;;;4993823;28;20288;-90
2022/11/22 07:11:09;;;;;;;6.45;2.60;;;7.30;99.90;;;;;;4993270;28;20251;-84
2022/11/22 07:13:37;;;;;;;7.22;1.73;;;7.30;99.90;;;;;;4997023;28;20181;-92
2022/11/22 07:16:05;;;;;;;17.98;2.38;;;7.30;99.90;;;;;;4996241;28;20188;-93
2022/11/22 07:18:32;;;;;;;12.07;1.88;;;7.50;99.90;;;;;;5000208;28;20173;-85
2022/11/22 07:21:05;;;;;;;4.43;1.90;;;7.70;99.90;;;;;;5002344;28;20169;-94
2022/11/22 07:23:32;;;;;;;9.02;2.00;;;7.60;99.90;;;;;;4996984;28;20425;-94
2022/11/22 07:25:58;;;;;;;3.80;1.50;;;7.70;99.90;;;;;;5007800;28;20162;-87
2022/11/22 07:28:44;;;;;;;9.20;2.55;;;7.70;99.90;;;;;;5013297;28;20220;-78
2022/11/22 07:31:13;;;;;;;6.07;1.67;;;7.80;99.90;;;;;;5001947;28;20232;-92
2022/11/22 07:33:39;;;;;;;6.78;2.22;;;7.80;99.90;;;;;;5000907;28;20285;-93
2022/11/22 07:36:13;;;;;;;10.68;1.63;;;7.70;99.90;;;;;;5000963;28;20618;-88
2022/11/22 07:38:38;;;;;;;6.57;2.47;;;7.70;99.90;;;;;;5000867;28;20168;-87
2022/11/22 07:41:05;;;;;;;10.68;2.00;;;7.80;99.90;;;;;;5002327;28;20161;-90
2022/11/22 07:43:31;;;;;;;3.22;1.48;;;7.80;99.90;;;;;;4999394;28;20269;-90
2022/11/22 07:46:15;;;;;;;7.70;2.25;;;7.90;99.90;;;;;;5003752;28;20153;-88
2022/11/22 07:48:41;;;;;;;6.70;1.83;;;8.00;99.90;;;;;;5001319;28;20223;-78
2022/11/22 07:51:07;;;;;;;16.70;2.22;;;8.00;99.90;;;;;;5011549;28;20216;-85
2022/11/22 07:53:43;;;;;;;4.72;1.65;;;8.00;99.90;;;;;;5010223;28;20173;-92
2022/11/22 07:56:16;;;;;;;3.47;1.60;;;7.90;99.90;;;;;;5009126;28;20161;-88
2022/11/22 07:58:42;;;;;;;3.58;1.55;;;7.90;99.90;;;;;;4975164;28;20267;-81
2022/11/22 08:01:10;;;;;;;3.50;1.40;;;7.80;99.90;;;;;;4976580;28;20252;-81
2022/11/22 08:03:36;;;;;;;6.68;1.80;;;7.80;99.90;;;;;;4976797;28;20851;-82
2022/11/22 08:06:05;;;;;;;4.28;1.85;;;7.80;99.90;;;;;;4959088;28;20177;-79
2022/11/22 08:08:31;;;;;;;7.28;1.58;;;7.80;99.90;;;;;;4976618;28;20220;-80
2022/11/22 08:10:56;;;;;;;4.75;1.40;;;7.90;99.90;;;;;;4976530;28;20209;-78
2022/11/22 08:13:22;;;;;;;4.63;1.77;;;8.00;99.90;;;;;;4959342;28;20173;-86
2022/11/22 08:15:48;;;;;;;4.93;1.83;;;8.20;99.90;;;;;;4975454;28;20182;-80
2022/11/22 08:18:14;;;;;;;2.13;1.10;;;8.10;99.90;;;;;;4977383;28;20172;-80
2022/11/22 08:20:40;;;;;;;17.85;2.28;;;8.20;99.90;;;;;;4975970;28;20194;-79
2022/11/22 08:23:06;;;;;;;2.60;1.52;;;8.10;99.90;;;;;;4973487;28;20232;-84
2022/11/22 08:25:31;;;;;;;8.88;1.73;;;8.10;99.90;;;;;;4967731;28;20246;-86
2022/11/22 08:27:57;;;;;;;4.65;1.40;;;8.00;99.90;;;;;;4972565;28;20184;-80
2022/11/22 08:30:23;;;;;;;6.55;1.83;;;8.00;99.90;;;;;;4964101;28;20213;-80
2022/11/22 08:32:50;;;;;;;7.03;1.80;;;8.00;99.90;;;;;;4960934;28;20174;-82
2022/11/22 08:35:16;;;;;;;5.72;1.40;;;8.10;99.90;;;;;;4971537;28;20171;-83
2022/11/22 08:37:41;;;;;;;7.25;1.80;;;8.10;99.90;;;;;;4969089;28;20232;-82
2022/11/22 08:40:08;;;;;;;5.68;1.40;;;8.10;99.90;;;;;;4975717;28;20189;-80
2022/11/22 08:42:33;;;;;;;10.63;1.77;;;8.10;99.90;;;;;;4964528;28;20178;-80
2022/11/22 08:44:59;;;;;;;4.93;1.77;;;8.10;99.90;;;;;;4965569;28;20531;-85
2022/11/22 08:47:24;;;;;;;15.65;1.67;;;8.20;99.90;;;;;;4974526;28;20166;-82
2022/11/22 08:49:50;;;;;;;5.63;1.40;;;8.20;99.90;;;;;;4957270;28;20545;-84
2022/11/22 08:52:16;;;;;;;7.05;1.30;;;8.30;99.90;;;;;;4953686;28;20214;-81
2022/11/22 08:54:41;;;;;;;4.15;1.52;;;8.40;99.90;;;;;;4974136;28;21151;-80
2022/11/22 08:57:07;;;;;;;5.90;2.00;;;8.40;99.90;;;;;;4974059;28;20190;-79
2022/11/22 08:59:33;;;;;;;4.13;1.60;;;8.40;99.90;;;;;;4972164;28;20225;-82
2022/11/22 09:01:58;;;;;;;4.32;1.13;;;8.50;99.90;;;;;;4956975;28;20273;-81
2022/11/22 09:04:24;;;;;;;10.05;1.65;;;8.40;99.90;;;;;;4974127;28;20186;-84
2022/11/22 09:06:51;;;;;;;3.83;1.48;;;8.40;99.90;;;;;;4957742;28;20173;-82
2022/11/22 09:09:16;;;;;;;5.65;2.10;;;8.50;99.90;;;;;;4974230;28;20194;-83
2022/11/22 09:11:42;;;;;;;4.15;1.50;;;8.50;99.90;;;;;;4957441;28;20300;-82
2022/11/22 09:14:07;;;;;;;1.55;1.35;;;8.50;99.90;;;;;;4975534;28;20176;-79
2022/11/22 09:16:33;;;;;;;4.03;1.50;;;8.40;99.90;;;;;;4975470;28;20181;-79
2022/11/22 09:18:59;;;;;;;7.05;1.55;;;8.30;99.90;;;;;;4956704;28;20248;-81
2022/11/22 09:21:25;;;;;;;2.33;1.20;;;8.40;99.90;;;;;;4975151;28;20584;-81
2022/11/22 09:23:52;;;;;;;7.70;1.60;;;8.40;99.90;;;;;;4958202;28;20170;-79
2022/11/22 09:26:21;;;;;;;4.72;1.38;;;8.40;99.90;;;;;;4958237;28;20261;-80
2022/11/22 09:28:46;;;;;;;3.72;1.50;;;8.50;99.90;;;;;;4958306;28;20292;-79
2022/11/22 09:31:14;;;;;;;2.10;1.05;;;8.60;99.90;;;;;;4958205;28;20292;-80
2022/11/22 09:33:43;;;;;;;2.38;1.00;;;8.60;99.90;;;;;;4974530;28;20192;-79
2022/11/22 09:36:14;;;;;;;3.70;1.33;;;8.60;99.90;;;;;;4974822;28;20169;-80
2022/11/22 09:38:40;;;;;;;4.47;1.50;;;8.50;99.90;;;;;;4975040;28;20161;-82
2022/11/22 09:41:31;;;;;;;4.53;1.20;;;8.60;99.90;;;;;;4958421;28;20193;-78
2022/11/22 09:44:35;;;;;;;2.95;1.75;;;8.70;99.90;;;;;;4975335;28;20166;-80
2022/11/22 09:47:56;;;;;;;8.45;1.88;;;9.00;99.90;;;;;;4941994;28;20217;-81
2022/11/22 09:50:21;;;;;;;5.85;1.05;;;8.90;99.90;;;;;;4906152;28;20227;-80
2022/11/22 09:52:54;;;;;;;3.00;1.02;;;9.00;99.90;;;;;;4975385;28;20182;-82
2022/11/22 09:55:45;;;;;;;2.50;1.08;;;9.00;99.90;;;;;;4977794;28;20252;-81
2022/11/22 09:58:27;;;;;;;7.78;2.03;;;8.90;99.90;;;;;;4970203;28;20190;-80
2022/11/22 10:01:00;;;;;;;2.90;1.20;;;8.90;99.90;;;;;;4975873;28;20162;-81
2022/11/22 10:03:29;;;;;;;3.85;1.20;;;9.00;99.90;;;;;;4974952;28;20627;-82
2022/11/22 10:05:58;;;;;;;2.55;0.98;;;9.00;99.90;;;;;;4975001;28;20262;-82
2022/11/22 10:09:07;;;;;;;3.22;1.10;;;8.90;99.90;;;;;;4957328;28;20281;-81
2022/11/22 10:11:45;;;;;;;2.78;1.30;;;9.00;99.90;;;;;;4986724;28;20308;-79
2022/11/22 10:14:34;;;;;;;0.77;0.70;;;9.00;99.90;;;;;;4974566;28;20212;-82
2022/11/22 10:17:05;;;;;;;3.38;1.05;;;9.00;99.90;;;;;;4974906;28;20245;-81
2022/11/22 10:19:40;;;;;;;1.65;1.08;;;9.20;99.90;;;;;;4974491;28;20186;-81
2022/11/22 10:22:13;;;;;;;1.70;1.17;;;9.40;99.90;;;;;;4974739;28;20173;-81
2022/11/22 10:24:38;;;;;;;3.63;1.00;;;9.30;99.90;;;;;;4957314;28;20264;-83
2022/11/22 10:27:13;;;;;;;3.63;1.23;;;9.50;99.90;;;;;;4973662;28;20718;-79
2022/11/22 10:29:54;;;;;;;1.20;0.80;;;9.70;99.90;;;;;;4974489;28;20713;-80
2022/11/22 10:32:50;;;;;;;4.47;1.83;;;9.50;99.90;;;;;;4956952;28;20260;-79
2022/11/22 10:35:47;;;;;;;4.65;1.75;;;9.70;99.90;;;;;;4974651;28;20181;-79
2022/11/22 10:38:31;;;;;;;2.60;1.02;;;9.50;99.90;;;;;;4971370;28;20186;-79
2022/11/22 10:41:10;;;;;;;1.98;1.00;;;9.50;99.90;;;;;;4974484;28;20189;-79
2022/11/22 10:44:01;;;;;;;1.13;0.82;;;9.50;99.90;;;;;;4957141;28;20174;-80
2022/11/22 10:46:43;;;;;;;3.13;0.70;;;9.40;99.90;;;;;;4974464;28;20162;-81
2022/11/22 10:49:37;;;;;;;6.22;1.17;;;9.50;99.90;;;;;;4974722;28;20224;-79
2022/11/22 10:52:08;;;;;;;2.15;1.17;;;9.60;99.90;;;;;;4974956;28;20713;-80
2022/11/22 10:55:04;;;;;;;3.38;0.88;;;9.70;99.90;;;;;;4956976;28;20170;-79
2022/11/22 10:57:33;;;;;;;2.60;1.25;;;9.60;99.90;;;;;;4966024;28;20781;-82
2022/11/22 11:00:32;;;;;;;1.42;0.80;;;9.50;99.90;;;;;;4973912;28;20217;-80
2022/11/22 11:03:10;;;;;;;3.03;0.82;;;9.50;99.90;;;;;;4941650;28;20662;-81
2022/11/22 11:06:20;;;;;;;5.82;4.82;;;9.40;99.90;;;;;;4974192;28;20220;-79
2022/11/22 11:09:00;;;;;;;0.70;0.65;;;9.30;99.90;;;;;;4959088;28;20209;-79
2022/11/22 11:11:27;;;;;;;30.10;2.42;;;9.30;99.90;;;;;;4956879;28;20221;-80
2022/11/22 11:14:00;;;;;;;1.60;1.00;;;9.30;99.90;;;;;;4976769;28;20197;-80
2022/11/22 11:16:31;;;;;;;12.85;1.08;;;9.40;99.90;;;;;;4983385;28;20612;-80
2022/11/22 11:19:10;;;;;;;6.10;1.10;;;9.40;99.90;;;;;;4984719;28;20193;-80
2022/11/22 11:21:36;;;;;;;1.70;1.08;;;9.40;99.90;;;;;;4985529;28;20180;-79
2022/11/22 11:24:01;;;;;;;2.00;0.98;;;9.60;99.90;;;;;;4985542;28;20530;-79
2022/11/22 11:26:33;;;;;;;3.20;1.00;;;9.70;99.90;;;;;;4985417;28;20170;-82
2022/11/22 11:29:17;;;;;;;1.40;1.05;;;9.70;99.90;;;;;;4985713;28;20193;-80
2022/11/22 11:31:44;;;;;;;2.17;0.90;;;9.80;99.90;;;;;;4969745;28;20243;-80
2022/11/22 11:34:27;;;;;;;0.80;0.80;;;9.80;99.90;;;;;;4985674;28;20185;-80
2022/11/22 11:36:55;;;;;;;1.15;0.80;;;10.00;99.90;;;;;;4985798;28;20166;-79
2022/11/22 11:39:26;;;;;;;3.80;1.10;;;10.00;99.90;;;;;;4969094;28;20198;-79
2022/11/22 11:41:51;;;;;;;1.52;0.93;;;10.00;99.90;;;;;;4986069;28;20158;-79
2022/11/22 11:44:34;;;;;;;3.17;0.70;;;10.20;99.90;;;;;;4970153;28;20196;-79
2022/11/22 11:47:01;;;;;;;0.80;0.77;;;10.20;99.90;;;;;;4982203;28;20499;-79
2022/11/22 11:49:29;;;;;;;0.60;0.50;;;10.20;99.90;;;;;;4973172;28;20256;-79
2022/11/22 11:52:02;;;;;;;2.28;0.70;;;10.30;99.90;;;;;;4973075;28;20662;-80
2022/11/22 11:54:47;;;;;;;0.60;0.60;;;10.00;99.90;;;;;;4956439;28;20178;-80
2022/11/22 11:57:29;;;;;;;0.73;0.57;;;10.00;99.90;;;;;;4972389;28;20189;-80
2022/11/22 11:59:59;;;;;;;1.95;0.70;;;10.00;99.90;;;;;;4973083;28;20717;-80
2022/11/22 12:02:41;;;;;;;0.93;0.65;;;10.20;99.90;;;;;;4963047;28;20166;-83
2022/11/22 12:05:12;;;;;;;3.20;0.52;;;10.00;99.90;;;;;;4985375;28;20181;-82
2022/11/22 12:07:40;;;;;;;0.75;0.60;;;10.10;99.90;;;;;;4987294;28;20237;-81
2022/11/22 12:10:37;;;;;;;1.40;0.90;;;10.10;99.90;;;;;;4986494;28;20198;-82
2022/11/22 12:13:10;;;;;;;0.50;0.50;;;10.10;99.90;;;;;;4982138;28;20194;-82
2022/11/22 12:15:55;;;;;;;0.50;0.50;;;10.10;99.90;;;;;;4976429;28;20186;-81
2022/11/22 12:18:30;;;;;;;1.05;0.70;;;10.10;99.90;;;;;;4980000;28;20193;-81
2022/11/22 12:21:16;;;;;;;1.33;0.82;;;10.10;99.90;;;;;;4973892;28;20176;-82
2022/11/22 12:24:00;;;;;;;0.98;0.68;;;10.30;99.90;;;;;;4973755;28;20320;-81
2022/11/22 12:26:28;;;;;;;0.68;0.60;;;10.40;99.90;;;;;;4956103;28;20269;-80
2022/11/22 12:28:55;;;;;;;0.55;0.55;;;10.50;99.90;;;;;;4973175;28;20264;-80
2022/11/22 12:31:36;;;;;;;1.08;0.70;;;10.70;99.90;;;;;;4958542;28;20681;-80
2022/11/22 12:34:09;;;;;;;0.70;0.60;;;10.70;99.90;;;;;;4976653;28;20494;-83
2022/11/22 12:36:44;;;;;;;2.33;0.55;;;10.70;99.90;;;;;;4976592;28;20193;-84
2022/11/22 12:39:24;;;;;;;2.97;0.93;;;10.90;99.90;;;;;;4976871;28;20224;-82
2022/11/22 12:42:15;;;;;;;0.50;0.50;;;10.80;99.90;;;;;;4975930;28;20174;-82
2022/11/22 12:44:46;;;;;;;2.05;0.98;;;10.90;99.90;;;;;;4960382;28;20182;-82
2022/11/22 12:47:19;;;;;;;10.45;1.00;;;10.60;99.90;;;;;;4958572;28;20568;-80
2022/11/22 12:49:53;;;;;;;2.67;1.00;;;10.40;99.90;;;;;;4939755;28;20698;-83
2022/11/22 12:52:33;;;;;;;3.72;0.90;;;10.40;99.90;;;;;;4956885;28;20694;-82
2022/11/22 12:55:07;;;;;;;1.95;1.10;;;10.10;99.90;;;;;;4956161;28;20646;-81
2022/11/22 12:57:51;;;;;;;5.43;1.20;;;10.20;99.90;;;;;;4956726;28;20220;-82
2022/11/22 13:00:23;;;;;;;0.95;0.90;;;10.10;99.90;;;;;;4938357;28;20608;-82
2022/11/22 13:02:55;;;;;;;2.85;0.98;;;10.30;99.90;;;;;;4956642;28;20163;-82
2022/11/22 13:05:36;;;;;;;5.95;1.35;;;10.30;99.90;;;;;;4939028;28;20265;-82
2022/11/22 13:08:13;;;;;;;1.70;0.90;;;10.10;99.90;;;;;;4956269;28;20166;-79
2022/11/22 13:10:48;;;;;;;2.35;1.08;;;10.10;99.90;;;;;;4956497;28;20603;-80
2022/11/22 13:13:27;;;;;;;1.77;0.98;;;10.20;99.90;;;;;;4955815;28;20241;-81
2022/11/22 13:15:56;;;;;;;8.00;1.02;;;10.40;99.90;;;;;;4957359;28;20177;-82
2022/11/22 13:18:25;;;;;;;4.40;1.52;;;10.60;99.90;;;;;;4959379;28;20178;-80
2022/11/22 13:21:13;;;;;;;6.15;1.15;;;10.70;99.90;;;;;;4945335;28;20191;-80
2022/11/22 13:24:10;;;;;;;2.20;1.20;;;10.60;99.90;;;;;;4956399;28;20196;-80
2022/11/22 13:26:54;;;;;;;3.65;1.23;;;10.50;99.90;;;;;;4947382;28;20244;-80